createdAt,value
2022-10-02T00:01:29.137Z,8.33
2022-10-02T00:03:59.346Z,8.40
2022-10-02T00:06:34.902Z,3.60
2022-10-02T00:09:05.211Z,5.73
2022-10-02T00:11:43.539Z,9.47
2022-10-02T00:14:16.587Z,9.37
2022-10-02T00:16:47.704Z,11.60
2022-10-02T00:19:18.735Z,9.33
2022-10-02T00:21:58.060Z,5.67
2022-10-02T00:24:28.377Z,7.50
2022-10-02T00:27:01.991Z,8.70
2022-10-02T00:29:40.849Z,6.10
2022-10-02T00:32:19.865Z,5.60
2022-10-02T00:35:02.045Z,4.27
2022-10-02T00:37:37.483Z,5.87
2022-10-02T00:40:30.710Z,5.33
2022-10-02T00:43:07.984Z,4.27
2022-10-02T00:45:47.750Z,3.77
2022-10-02T00:48:30.456Z,5.07
2022-10-02T00:51:09.370Z,6.20
2022-10-02T00:53:46.465Z,6.77
2022-10-02T00:56:23.578Z,5.33
2022-10-02T00:59:07.478Z,5.20
2022-10-02T01:01:43.502Z,7.97
2022-10-02T01:04:15.734Z,4.73
2022-10-02T01:06:43.536Z,7.13
2022-10-02T01:09:12.535Z,5.10
2022-10-02T01:11:40.898Z,7.40
2022-10-02T01:14:08.972Z,6.83
2022-10-02T01:16:41.888Z,6.73
2022-10-02T01:19:24.697Z,8.57
2022-10-02T01:21:57.991Z,8.27
2022-10-02T01:24:31.186Z,5.20
2022-10-02T01:27:00.322Z,4.50
2022-10-02T01:29:28.119Z,6.93
2022-10-02T01:31:56.949Z,3.90
2022-10-02T01:34:25.189Z,3.33
2022-10-02T01:36:53.446Z,9.40
2022-10-02T01:39:21.275Z,5.93
2022-10-02T01:41:49.094Z,9.27
2022-10-02T01:44:18.187Z,5.53
2022-10-02T01:46:55.241Z,7.90
2022-10-02T01:49:44.773Z,5.97
2022-10-02T01:52:33.060Z,7.43
2022-10-02T01:55:21.055Z,7.03
2022-10-02T01:58:00.608Z,7.50
2022-10-02T02:00:39.542Z,8.60
2022-10-02T02:03:16.740Z,11.63
2022-10-02T02:05:50.713Z,8.33
2022-10-02T02:08:29.768Z,4.67
2022-10-02T02:11:10.214Z,8.20
2022-10-02T02:13:45.739Z,4.77
2022-10-02T02:16:22.798Z,9.37
2022-10-02T02:18:55.187Z,8.83
2022-10-02T02:21:25.831Z,7.50
2022-10-02T02:23:55.990Z,10.97
2022-10-02T02:26:26.486Z,9.87
2022-10-02T02:28:58.059Z,8.93
2022-10-02T02:31:30.681Z,8.23
2022-10-02T02:34:01.499Z,7.97
2022-10-02T02:36:37.099Z,10.87
2022-10-02T02:39:08.840Z,7.57
2022-10-02T02:41:42.816Z,7.80
2022-10-02T02:44:15.907Z,9.17
2022-10-02T02:47:06.775Z,8.07
2022-10-02T02:49:40.558Z,10.87
2022-10-02T02:52:14.931Z,9.97
2022-10-02T02:54:46.347Z,8.23
2022-10-02T02:57:16.206Z,8.63
2022-10-02T02:59:47.356Z,11.47
2022-10-02T03:02:16.465Z,13.07
2022-10-02T03:04:44.193Z,10.47
2022-10-02T03:07:17.299Z,17.03
2022-10-02T03:09:58.047Z,10.00
2022-10-02T03:12:36.906Z,14.87
2022-10-02T03:15:26.547Z,17.43
2022-10-02T03:18:25.846Z,12.63
2022-10-02T03:21:04.309Z,15.93
2022-10-02T03:23:41.529Z,13.60
2022-10-02T03:26:15.691Z,12.30
2022-10-02T03:28:56.109Z,16.33
2022-10-02T03:31:27.758Z,14.80
2022-10-02T03:34:00.119Z,16.50
2022-10-02T03:36:28.287Z,20.80
2022-10-02T03:39:20.269Z,20.27
2022-10-02T03:41:46.591Z,14.53
2022-10-02T03:44:14.294Z,18.20
2022-10-02T03:46:42.019Z,19.60
2022-10-02T03:49:11.113Z,17.60
2022-10-02T03:51:38.848Z,23.17
2022-10-02T03:54:16.542Z,18.00
2022-10-02T03:56:51.013Z,18.13
2022-10-02T03:59:29.472Z,18.17
2022-10-02T04:02:01.244Z,14.90
2022-10-02T04:04:36.328Z,15.23
2022-10-02T04:07:05.767Z,17.03
2022-10-02T04:09:39.470Z,14.87
2022-10-02T04:12:12.390Z,17.47
2022-10-02T04:14:46.175Z,21.17
2022-10-02T04:17:19.924Z,20.57
2022-10-02T04:19:53.978Z,18.03
2022-10-02T04:22:32.501Z,16.27
2022-10-02T04:25:04.323Z,13.20
2022-10-02T04:27:37.781Z,15.90
2022-10-02T04:30:10.746Z,21.40
2022-10-02T04:32:39.057Z,20.67
2022-10-02T04:35:16.901Z,22.43
2022-10-02T04:38:07.604Z,23.00
2022-10-02T04:40:51.224Z,15.63
2022-10-02T04:43:31.790Z,19.03
2022-10-02T04:46:09.986Z,15.20
2022-10-02T04:48:56.314Z,16.50
2022-10-02T04:51:43.478Z,19.87
2022-10-02T04:54:35.832Z,15.40
2022-10-02T04:57:20.176Z,17.93
2022-10-02T05:00:03.037Z,20.97
2022-10-02T05:02:40.033Z,18.40
2022-10-02T05:05:18.470Z,20.53
2022-10-02T05:07:56.374Z,22.07
2022-10-02T05:10:45.831Z,16.47
2022-10-02T05:13:26.511Z,17.07
2022-10-02T05:16:09.904Z,22.30
2022-10-02T05:18:56.731Z,21.70
2022-10-02T05:21:48.241Z,19.80
2022-10-02T05:24:32.740Z,18.33
2022-10-02T05:27:29.852Z,23.67
2022-10-02T05:30:09.685Z,24.33
2022-10-02T05:33:18.798Z,18.70
2022-10-02T05:36:05.910Z,15.50
2022-10-02T05:38:51.672Z,17.67
2022-10-02T05:41:27.654Z,19.30
2022-10-02T05:44:02.600Z,21.97
2022-10-02T05:46:35.554Z,17.03
2022-10-02T05:49:07.601Z,18.03
2022-10-02T05:51:50.388Z,18.17
2022-10-02T05:54:28.577Z,20.00
2022-10-02T05:57:02.705Z,25.63
2022-10-02T05:59:37.503Z,19.20
2022-10-02T06:02:15.502Z,22.07
2022-10-02T06:04:48.863Z,23.17
2022-10-02T06:07:19.176Z,24.03
2022-10-02T06:09:50.854Z,21.87
2022-10-02T06:12:26.729Z,24.30
2022-10-02T06:15:01.036Z,27.50
2022-10-02T06:17:32.111Z,22.30
2022-10-02T06:20:06.610Z,19.70
2022-10-02T06:22:41.009Z,25.57
2022-10-02T06:25:15.066Z,24.37
2022-10-02T06:27:48.711Z,26.50
2022-10-02T06:30:18.790Z,20.73
2022-10-02T06:32:53.009Z,22.27
2022-10-02T06:35:35.510Z,22.87
2022-10-02T06:38:16.256Z,26.97
2022-10-02T06:40:51.477Z,20.13
2022-10-02T06:43:36.283Z,24.03
2022-10-02T06:46:17.783Z,19.10
2022-10-02T06:48:52.963Z,22.33
2022-10-02T06:51:28.072Z,26.70
2022-10-02T06:54:19.079Z,17.70
2022-10-02T06:57:04.418Z,23.00
2022-10-02T06:59:49.356Z,20.70
2022-10-02T07:02:33.889Z,20.03
2022-10-02T07:05:20.745Z,20.33
2022-10-02T07:07:57.808Z,14.90
2022-10-02T07:10:35.671Z,16.97
2022-10-02T07:13:30.188Z,15.90
2022-10-02T07:16:21.059Z,12.80
2022-10-02T07:19:21.524Z,14.73
2022-10-02T07:21:59.475Z,13.93
2022-10-02T07:24:46.398Z,12.60
2022-10-02T07:27:21.740Z,14.77
2022-10-02T07:30:00.244Z,13.23
2022-10-02T07:32:42.972Z,16.60
2022-10-02T07:35:42.724Z,17.03
2022-10-02T07:38:44.139Z,17.37
2022-10-02T07:41:20.596Z,13.30
2022-10-02T07:43:53.154Z,17.93
2022-10-02T07:46:31.692Z,14.23
2022-10-02T07:49:17.728Z,15.87
2022-10-02T07:51:50.942Z,12.30
2022-10-02T07:54:43.756Z,15.33
2022-10-02T07:57:28.525Z,16.97
2022-10-02T08:00:01.660Z,13.30
2022-10-02T08:02:35.561Z,14.97
2022-10-02T08:05:10.035Z,17.37
2022-10-02T08:07:37.796Z,10.17
2022-10-02T08:10:11.141Z,12.43
2022-10-02T08:12:42.247Z,14.17
2022-10-02T08:15:16.657Z,15.10
2022-10-02T08:17:49.836Z,14.27
2022-10-02T08:20:29.503Z,13.53
2022-10-02T08:23:04.385Z,14.43
2022-10-02T08:25:39.552Z,10.93
2022-10-02T08:28:12.667Z,13.27
2022-10-02T08:30:40.371Z,9.70
2022-10-02T08:33:15.158Z,12.73
2022-10-02T08:35:57.821Z,8.50
2022-10-02T08:38:37.223Z,12.70
2022-10-02T08:41:50.381Z,12.90
2022-10-02T08:44:55.503Z,12.17
2022-10-02T08:47:53.842Z,11.17
2022-10-02T08:50:37.490Z,14.30
2022-10-02T08:53:41.713Z,8.83
2022-10-02T08:56:22.539Z,15.87
2022-10-02T08:59:19.118Z,13.63
2022-10-02T09:02:19.668Z,11.87
2022-10-02T09:05:19.767Z,13.00
2022-10-02T09:08:17.033Z,9.80
2022-10-02T09:11:37.117Z,13.87
2022-10-02T09:17:16.041Z,11.63
2022-10-02T09:19:57.461Z,6.33
2022-10-02T09:22:55.172Z,14.00
2022-10-02T09:25:31.728Z,9.67
2022-10-02T09:28:33.033Z,8.43
2022-10-02T09:31:31.705Z,11.20
2022-10-02T09:34:37.736Z,8.50
2022-10-02T09:37:44.168Z,8.03
2022-10-02T09:40:36.626Z,10.50
2022-10-02T09:43:57.318Z,13.03
2022-10-02T09:46:59.009Z,10.60
2022-10-02T09:50:10.799Z,11.23
2022-10-02T09:53:19.495Z,11.97
2022-10-02T09:56:12.501Z,8.20
2022-10-02T09:59:17.513Z,6.13
2022-10-02T10:02:25.463Z,7.60
2022-10-02T10:05:20.167Z,8.00
2022-10-02T10:08:31.681Z,11.63
2022-10-02T10:11:32.278Z,9.37
2022-10-02T10:14:19.681Z,7.73
2022-10-02T10:17:14.108Z,7.27
2022-10-02T10:20:05.586Z,6.17
2022-10-02T10:22:49.840Z,11.13
2022-10-02T10:25:48.360Z,8.73
2022-10-02T10:29:03.896Z,9.43
2022-10-02T10:31:59.206Z,6.83
2022-10-02T10:34:57.761Z,8.70
2022-10-02T10:38:13.955Z,6.33
2022-10-02T10:40:59.408Z,8.27
2022-10-02T10:43:52.966Z,7.67
2022-10-02T10:46:35.341Z,7.33
2022-10-02T10:49:17.109Z,8.50
2022-10-02T10:51:54.613Z,9.07
2022-10-02T10:54:49.559Z,6.43
2022-10-02T10:57:37.342Z,8.47
2022-10-02T11:00:21.423Z,10.73
2022-10-02T11:03:31.031Z,5.63
2022-10-02T11:06:27.859Z,5.90
2022-10-02T11:09:18.099Z,9.67
2022-10-02T11:12:01.418Z,7.03
2022-10-02T11:14:39.773Z,4.60
2022-10-02T11:17:21.983Z,7.03
2022-10-02T11:20:02.366Z,9.87
2022-10-02T11:22:56.837Z,10.60
2022-10-02T11:26:02.646Z,9.53
2022-10-02T11:29:18.031Z,8.70
2022-10-02T11:32:28.027Z,10.13
2022-10-02T11:35:14.037Z,6.57
2022-10-02T11:37:58.691Z,8.43
2022-10-02T11:40:40.324Z,8.80
2022-10-02T11:43:43.812Z,8.20
2022-10-02T11:46:28.113Z,6.47
2022-10-02T11:49:26.848Z,7.27
2022-10-02T11:52:18.680Z,7.50
2022-10-02T11:55:04.084Z,4.77
2022-10-02T11:57:40.726Z,6.07
2022-10-02T12:00:48.155Z,7.17
2022-10-02T12:03:23.057Z,5.30
2022-10-02T12:06:00.210Z,12.40
2022-10-02T12:08:47.406Z,5.10
2022-10-02T12:11:21.375Z,10.87
2022-10-02T12:14:01.158Z,8.13
2022-10-02T12:16:42.738Z,6.30
2022-10-02T12:19:26.991Z,5.03
2022-10-02T12:22:26.536Z,4.83
2022-10-02T12:25:19.566Z,7.83
2022-10-02T12:27:55.746Z,7.63
2022-10-02T12:30:26.413Z,4.30
2022-10-02T12:33:10.979Z,4.33
2022-10-02T12:35:56.798Z,4.60
2022-10-02T12:38:37.397Z,6.40
2022-10-02T12:41:17.814Z,8.53
2022-10-02T12:44:06.384Z,5.83
2022-10-02T12:47:06.150Z,8.83
2022-10-02T12:49:51.727Z,8.93
2022-10-02T12:53:04.328Z,6.60
2022-10-02T12:56:04.943Z,7.23
2022-10-02T12:58:46.234Z,8.83
2022-10-02T13:01:45.177Z,6.57
2022-10-02T13:04:57.405Z,5.10
2022-10-02T13:07:59.700Z,6.77
2022-10-02T13:10:31.850Z,7.37
2022-10-02T13:13:13.741Z,5.63
2022-10-02T13:15:53.784Z,4.13
2022-10-02T13:18:43.732Z,4.80
2022-10-02T13:21:18.781Z,3.57
2022-10-02T13:23:57.960Z,6.47
2022-10-02T13:26:38.165Z,7.07
2022-10-02T13:29:24.237Z,7.40
2022-10-02T13:32:15.688Z,8.93
2022-10-02T13:35:03.297Z,7.97
2022-10-02T13:37:43.368Z,7.33
2022-10-02T13:40:24.821Z,4.87
2022-10-02T13:43:19.927Z,7.67
2022-10-02T13:45:57.173Z,6.67
2022-10-02T13:48:35.291Z,5.93
2022-10-02T13:51:08.100Z,4.43
2022-10-02T13:54:21.919Z,8.60
2022-10-02T13:56:58.113Z,4.10
2022-10-02T13:59:41.458Z,5.23
2022-10-02T14:02:22.010Z,4.27
2022-10-02T14:04:56.976Z,7.43
2022-10-02T14:07:48.918Z,3.97
2022-10-02T14:10:30.919Z,5.77
2022-10-02T14:13:10.917Z,4.20
2022-10-02T14:15:51.424Z,8.57
2022-10-02T14:18:33.717Z,5.17
2022-10-02T14:21:10.017Z,7.27
2022-10-02T14:23:58.516Z,4.17
2022-10-02T14:26:42.137Z,3.73
2022-10-02T14:29:44.361Z,6.37
2022-10-02T14:35:34.824Z,5.93
2022-10-02T14:38:26.989Z,8.37
2022-10-02T14:40:56.017Z,4.30
2022-10-02T14:44:02.721Z,4.43
2022-10-02T14:46:44.342Z,5.13
2022-10-02T14:49:36.642Z,7.57
2022-10-02T14:52:27.515Z,5.83
2022-10-02T14:55:16.877Z,5.80
2022-10-02T14:58:01.484Z,6.93
2022-10-02T15:00:41.421Z,4.47
2022-10-02T15:03:26.287Z,5.20
2022-10-02T15:06:27.039Z,3.90
2022-10-02T15:08:59.714Z,6.80
2022-10-02T15:11:48.739Z,2.00
2022-10-02T15:14:20.775Z,3.60
2022-10-02T15:17:12.493Z,5.70
2022-10-02T15:19:49.759Z,4.10
2022-10-02T15:22:22.461Z,5.27
2022-10-02T15:24:57.227Z,6.37
2022-10-02T15:27:26.845Z,4.60
2022-10-02T15:30:13.050Z,4.13
2022-10-02T15:33:00.439Z,4.73
2022-10-02T15:35:40.936Z,5.23
2022-10-02T15:38:23.755Z,3.27
2022-10-02T15:41:19.096Z,3.90
2022-10-02T15:44:00.945Z,3.70
2022-10-02T15:46:37.456Z,3.97
2022-10-02T15:49:13.398Z,6.80
2022-10-02T15:52:00.850Z,4.77
2022-10-02T15:54:53.555Z,4.80
2022-10-02T15:57:58.410Z,8.00
2022-10-02T16:00:27.337Z,7.67
2022-10-02T16:03:13.498Z,6.17
2022-10-02T16:05:51.221Z,5.90
2022-10-02T16:08:41.413Z,8.97
2022-10-02T16:11:29.418Z,7.37
2022-10-02T16:14:07.530Z,8.13
2022-10-02T16:17:12.098Z,6.87
2022-10-02T16:20:03.887Z,5.47
2022-10-02T16:22:44.765Z,5.67
2022-10-02T16:25:26.348Z,11.13
2022-10-02T16:28:01.696Z,4.30
2022-10-02T16:30:39.313Z,4.23
2022-10-02T16:33:20.127Z,8.53
2022-10-02T16:35:59.550Z,5.23
2022-10-02T16:38:39.250Z,7.97
2022-10-02T16:44:30.897Z,5.23
2022-10-02T16:47:07.944Z,6.93
2022-10-02T16:49:50.925Z,6.10
2022-10-02T16:52:24.730Z,6.93
2022-10-02T16:54:59.189Z,4.30
2022-10-02T16:57:34.388Z,8.70
2022-10-02T17:00:07.684Z,8.37
2022-10-02T17:02:45.964Z,6.47
2022-10-02T17:05:24.597Z,8.63
2022-10-02T17:07:59.514Z,8.30
2022-10-02T17:10:38.693Z,7.43
2022-10-02T17:13:26.294Z,12.27
2022-10-02T17:15:59.752Z,7.70
2022-10-02T17:18:35.426Z,8.07
2022-10-02T17:21:13.752Z,14.10
2022-10-02T17:23:50.986Z,7.57
2022-10-02T17:26:29.491Z,11.80
2022-10-02T17:29:02.864Z,9.40
2022-10-02T17:31:41.838Z,6.77
2022-10-02T17:34:23.042Z,7.37
2022-10-02T17:37:02.253Z,6.53
2022-10-02T17:39:53.544Z,8.90
2022-10-02T17:42:32.633Z,6.90
2022-10-02T17:45:15.753Z,10.37
2022-10-02T17:48:19.048Z,7.57
2022-10-02T17:51:38.704Z,7.67
2022-10-02T17:54:46.584Z,7.37
2022-10-02T18:00:21.232Z,10.27
2022-10-02T18:03:12.953Z,6.13
2022-10-02T18:05:54.388Z,8.50
2022-10-02T18:08:49.261Z,8.70
2022-10-02T18:11:30.423Z,10.47
2022-10-02T18:14:11.391Z,12.03
2022-10-02T18:16:53.224Z,9.33
2022-10-02T18:19:29.096Z,9.93
2022-10-02T18:22:14.885Z,9.73
2022-10-02T18:25:19.050Z,12.07
2022-10-02T18:28:12.320Z,13.10
2022-10-02T18:30:50.059Z,11.30
2022-10-02T18:33:51.717Z,18.43
2022-10-02T18:36:31.023Z,14.33
2022-10-02T18:39:02.349Z,11.07
2022-10-02T18:41:50.499Z,9.83
2022-10-02T18:44:35.104Z,9.00
2022-10-02T18:47:10.286Z,10.07
2022-10-02T18:49:57.024Z,10.93
2022-10-02T18:52:57.037Z,8.77
2022-10-02T18:55:43.576Z,11.20
2022-10-02T18:58:25.074Z,11.87
2022-10-02T19:01:04.698Z,8.87
2022-10-02T19:03:44.824Z,11.60
2022-10-02T19:06:16.975Z,8.27
2022-10-02T19:09:19.101Z,12.47
2022-10-02T19:11:49.962Z,8.27
2022-10-02T19:14:34.324Z,11.93
2022-10-02T19:17:04.533Z,9.07
2022-10-02T19:19:33.525Z,9.57
2022-10-02T19:22:09.305Z,11.53
2022-10-02T19:24:40.570Z,12.87
2022-10-02T19:27:15.081Z,14.30
2022-10-02T19:29:48.634Z,7.43
2022-10-02T19:32:21.187Z,8.30
2022-10-02T19:34:56.283Z,8.63
2022-10-02T19:37:24.188Z,8.40
2022-10-02T19:39:54.628Z,13.77
2022-10-02T19:42:26.233Z,11.43
2022-10-02T19:44:59.409Z,8.77
2022-10-02T19:47:32.441Z,10.70
2022-10-02T19:50:02.333Z,11.93
2022-10-02T19:52:41.404Z,16.10
2022-10-02T19:55:22.110Z,13.00
2022-10-02T19:57:53.998Z,10.97
2022-10-02T20:00:23.378Z,10.23
2022-10-02T20:02:55.632Z,12.77
2022-10-02T20:05:25.274Z,9.63
2022-10-02T20:07:56.832Z,11.33
2022-10-02T20:10:31.229Z,14.93
2022-10-02T20:13:05.941Z,10.97
2022-10-02T20:15:59.717Z,8.07
2022-10-02T20:18:27.641Z,10.17
2022-10-02T20:21:05.554Z,8.90
2022-10-02T20:23:35.661Z,7.87
2022-10-02T20:26:08.935Z,13.13
2022-10-02T20:28:45.341Z,14.17
2022-10-02T20:31:18.666Z,10.50
2022-10-02T20:33:50.119Z,11.43
2022-10-02T20:36:21.789Z,7.87
2022-10-02T20:38:52.148Z,8.37
2022-10-02T20:41:24.073Z,12.20
2022-10-02T20:43:55.100Z,16.03
2022-10-02T20:46:54.688Z,10.77
2022-10-02T20:49:59.447Z,12.80
2022-10-02T20:52:53.227Z,7.30
2022-10-02T20:55:27.413Z,13.60
2022-10-02T20:58:17.528Z,13.77
2022-10-02T21:00:58.605Z,8.73
2022-10-02T21:03:53.515Z,10.40
2022-10-02T21:07:05.787Z,13.13
2022-10-02T21:09:56.923Z,12.57
2022-10-02T21:12:55.969Z,10.10
2022-10-02T21:15:46.150Z,12.80
2022-10-02T21:18:45.038Z,9.80
2022-10-02T21:21:53.714Z,10.07
2022-10-02T21:25:03.303Z,8.47
2022-10-02T21:28:04.219Z,11.40
2022-10-02T21:30:41.806Z,10.57
2022-10-02T21:33:15.442Z,9.07
2022-10-02T21:35:56.199Z,13.97
2022-10-02T21:38:52.897Z,12.47
2022-10-02T21:41:59.433Z,9.80
2022-10-02T21:45:04.552Z,12.03
2022-10-02T21:48:07.538Z,15.60
2022-10-02T21:50:58.355Z,16.27
2022-10-02T21:54:11.515Z,8.50
2022-10-02T21:57:21.305Z,11.83
2022-10-02T22:00:13.950Z,9.30
2022-10-02T22:03:25.172Z,9.80
2022-10-02T22:06:39.215Z,12.43
2022-10-02T22:09:26.913Z,14.13
2022-10-02T22:12:07.693Z,12.47
2022-10-02T22:14:39.341Z,13.60
2022-10-02T22:17:18.540Z,10.80
2022-10-02T22:20:08.816Z,14.17
2022-10-02T22:22:52.796Z,11.50
2022-10-02T22:25:36.719Z,8.67
2022-10-02T22:28:17.830Z,8.53
2022-10-02T22:31:12.418Z,8.90
2022-10-02T22:33:54.112Z,10.67
2022-10-02T22:36:52.398Z,12.33
2022-10-02T22:39:29.207Z,11.70
2022-10-02T22:42:01.383Z,10.63
2022-10-02T22:44:36.819Z,9.13
2022-10-02T22:47:09.857Z,11.37
2022-10-02T22:49:41.618Z,17.10
2022-10-02T22:52:12.861Z,10.07
2022-10-02T22:54:46.537Z,14.23
2022-10-02T22:57:25.742Z,13.00
2022-10-02T22:59:59.939Z,11.03
2022-10-02T23:02:33.686Z,10.57
2022-10-02T23:05:10.820Z,8.67
2022-10-02T23:07:46.273Z,8.00
2022-10-02T23:10:22.349Z,12.40
2022-10-02T23:13:02.026Z,14.30
2022-10-02T23:15:39.665Z,15.07
2022-10-02T23:18:19.194Z,15.47
2022-10-02T23:20:54.185Z,19.23
2022-10-02T23:23:28.370Z,10.63
2022-10-02T23:26:04.974Z,12.93
2022-10-02T23:28:38.339Z,12.90
2022-10-02T23:31:16.207Z,21.20
2022-10-02T23:33:51.827Z,14.47
2022-10-02T23:36:25.340Z,10.57
2022-10-02T23:38:59.877Z,12.37
2022-10-02T23:41:47.495Z,13.40
2022-10-02T23:44:25.453Z,15.13
2022-10-02T23:47:20.857Z,17.93
2022-10-02T23:49:51.021Z,9.83
2022-10-02T23:52:37.737Z,24.77
2022-10-02T23:55:37.121Z,13.50
2022-10-02T23:58:29.057Z,13.93
